sensor_id;sensor_type;location;lat;lon;timestamp;P1;durP1;ratioP1;P2;durP2;ratioP2
12846;SDS011;6492;48.128;8.320;2023-06-10T00:02:55;6.30;;;5.70;;
12846;SDS011;6492;48.128;8.320;2023-06-10T00:06:57;6.40;;;5.80;;
12846;SDS011;6492;48.128;8.320;2023-06-10T00:11:01;6.47;;;5.87;;
12846;SDS011;6492;48.128;8.320;2023-06-10T00:15:03;5.70;;;5.20;;
12846;SDS011;6492;48.128;8.320;2023-06-10T00:19:05;6.03;;;5.43;;
12846;SDS011;6492;48.128;8.320;2023-06-10T00:23:08;6.30;;;5.70;;
12846;SDS011;6492;48.128;8.320;2023-06-10T00:27:11;6.10;;;5.60;;
12846;SDS011;6492;48.128;8.320;2023-06-10T00:31:13;7.50;;;6.57;;
12846;SDS011;6492;48.128;8.320;2023-06-10T00:35:15;7.80;;;7.10;;
12846;SDS011;6492;48.128;8.320;2023-06-10T00:39:17;7.20;;;6.53;;
12846;SDS011;6492;48.128;8.320;2023-06-10T00:43:20;6.20;;;5.70;;
12846;SDS011;6492;48.128;8.320;2023-06-10T00:47:22;6.07;;;5.57;;
12846;SDS011;6492;48.128;8.320;2023-06-10T00:51:24;6.90;;;6.30;;
12846;SDS011;6492;48.128;8.320;2023-06-10T00:55:26;7.73;;;6.63;;
12846;SDS011;6492;48.128;8.320;2023-06-10T00:59:29;6.87;;;6.23;;
12846;SDS011;6492;48.128;8.320;2023-06-10T01:03:32;8.47;;;7.63;;
12846;SDS011;6492;48.128;8.320;2023-06-10T01:07:38;7.87;;;7.17;;
12846;SDS011;6492;48.128;8.320;2023-06-10T01:11:46;7.77;;;6.63;;
12846;SDS011;6492;48.128;8.320;2023-06-10T01:16:00;8.93;;;8.13;;
12846;SDS011;6492;48.128;8.320;2023-06-10T01:20:02;7.97;;;7.27;;
12846;SDS011;6492;48.128;8.320;2023-06-10T01:24:13;8.50;;;7.60;;
12846;SDS011;6492;48.128;8.320;2023-06-10T01:28:18;8.27;;;7.47;;
12846;SDS011;6492;48.128;8.320;2023-06-10T01:32:27;7.77;;;6.97;;
12846;SDS011;6492;48.128;8.320;2023-06-10T01:36:38;7.47;;;6.87;;
12846;SDS011;6492;48.128;8.320;2023-06-10T01:40:43;8.50;;;7.70;;
12846;SDS011;6492;48.128;8.320;2023-06-10T01:44:46;7.60;;;6.90;;
12846;SDS011;6492;48.128;8.320;2023-06-10T01:48:48;8.20;;;7.40;;
12846;SDS011;6492;48.128;8.320;2023-06-10T01:52:50;8.10;;;7.40;;
12846;SDS011;6492;48.128;8.320;2023-06-10T01:56:53;7.90;;;7.10;;
12846;SDS011;6492;48.128;8.320;2023-06-10T02:00:55;7.60;;;6.90;;
12846;SDS011;6492;48.128;8.320;2023-06-10T02:04:57;7.83;;;7.03;;
12846;SDS011;6492;48.128;8.320;2023-06-10T02:08:59;7.40;;;6.80;;
12846;SDS011;6492;48.128;8.320;2023-06-10T02:13:02;7.30;;;6.60;;
12846;SDS011;6492;48.128;8.320;2023-06-10T02:17:04;8.27;;;6.87;;
12846;SDS011;6492;48.128;8.320;2023-06-10T02:21:06;7.13;;;6.53;;
12846;SDS011;6492;48.128;8.320;2023-06-10T02:25:08;8.47;;;7.67;;
12846;SDS011;6492;48.128;8.320;2023-06-10T02:29:12;8.37;;;7.47;;
12846;SDS011;6492;48.128;8.320;2023-06-10T02:33:13;7.90;;;7.10;;
12846;SDS011;6492;48.128;8.320;2023-06-10T02:37:17;8.23;;;7.53;;
12846;SDS011;6492;48.128;8.320;2023-06-10T02:41:19;8.33;;;7.60;;
12846;SDS011;6492;48.128;8.320;2023-06-10T02:45:23;8.50;;;7.63;;
12846;SDS011;6492;48.128;8.320;2023-06-10T02:49:25;7.93;;;7.13;;
12846;SDS011;6492;48.128;8.320;2023-06-10T02:53:28;8.27;;;7.57;;
12846;SDS011;6492;48.128;8.320;2023-06-10T02:57:29;8.30;;;7.50;;
12846;SDS011;6492;48.128;8.320;2023-06-10T03:01:33;9.03;;;8.23;;
12846;SDS011;6492;48.128;8.320;2023-06-10T03:05:36;8.20;;;7.40;;
12846;SDS011;6492;48.128;8.320;2023-06-10T03:09:38;8.80;;;7.60;;
12846;SDS011;6492;48.128;8.320;2023-06-10T03:13:40;8.87;;;8.07;;
12846;SDS011;6492;48.128;8.320;2023-06-10T03:17:43;7.90;;;7.20;;
12846;SDS011;6492;48.128;8.320;2023-06-10T03:22:06;8.90;;;8.00;;
12846;SDS011;6492;48.128;8.320;2023-06-10T03:26:10;8.07;;;7.37;;
12846;SDS011;6492;48.128;8.320;2023-06-10T03:30:14;11.37;;;9.03;;
12846;SDS011;6492;48.128;8.320;2023-06-10T03:34:18;8.63;;;7.87;;
12846;SDS011;6492;48.128;8.320;2023-06-10T03:38:20;9.20;;;8.40;;
12846;SDS011;6492;48.128;8.320;2023-06-10T03:42:21;8.57;;;7.77;;
12846;SDS011;6492;48.128;8.320;2023-06-10T03:46:23;9.10;;;8.30;;
12846;SDS011;6492;48.128;8.320;2023-06-10T03:50:26;9.53;;;8.63;;
12846;SDS011;6492;48.128;8.320;2023-06-10T03:54:28;9.40;;;8.50;;
12846;SDS011;6492;48.128;8.320;2023-06-10T03:58:31;8.63;;;7.93;;
12846;SDS011;6492;48.128;8.320;2023-06-10T04:02:33;8.97;;;8.17;;
12846;SDS011;6492;48.128;8.320;2023-06-10T04:06:36;10.27;;;9.23;;
12846;SDS011;6492;48.128;8.320;2023-06-10T04:10:38;8.97;;;8.17;;
12846;SDS011;6492;48.128;8.320;2023-06-10T04:14:40;8.60;;;7.87;;
12846;SDS011;6492;48.128;8.320;2023-06-10T04:18:42;10.30;;;9.40;;
12846;SDS011;6492;48.128;8.320;2023-06-10T04:22:45;10.80;;;9.70;;
12846;SDS011;6492;48.128;8.320;2023-06-10T04:26:47;11.07;;;10.07;;
12846;SDS011;6492;48.128;8.320;2023-06-10T04:30:49;10.97;;;9.97;;
12846;SDS011;6492;48.128;8.320;2023-06-10T04:34:50;10.80;;;9.70;;
12846;SDS011;6492;48.128;8.320;2023-06-10T04:38:54;10.27;;;9.33;;
12846;SDS011;6492;48.128;8.320;2023-06-10T04:42:56;11.10;;;10.00;;
12846;SDS011;6492;48.128;8.320;2023-06-10T04:46:57;11.60;;;10.43;;
12846;SDS011;6492;48.128;8.320;2023-06-10T04:50:59;11.10;;;10.10;;
12846;SDS011;6492;48.128;8.320;2023-06-10T04:55:03;10.57;;;9.57;;
12846;SDS011;6492;48.128;8.320;2023-06-10T04:59:05;11.10;;;10.10;;
12846;SDS011;6492;48.128;8.320;2023-06-10T05:03:07;10.90;;;9.90;;
12846;SDS011;6492;48.128;8.320;2023-06-10T05:07:09;11.27;;;10.27;;
12846;SDS011;6492;48.128;8.320;2023-06-10T05:11:12;12.10;;;11.03;;
12846;SDS011;6492;48.128;8.320;2023-06-10T05:15:14;11.67;;;10.57;;
12846;SDS011;6492;48.128;8.320;2023-06-10T05:19:16;11.33;;;10.23;;
12846;SDS011;6492;48.128;8.320;2023-06-10T05:23:18;11.70;;;10.60;;
12846;SDS011;6492;48.128;8.320;2023-06-10T05:27:21;11.50;;;10.40;;
12846;SDS011;6492;48.128;8.320;2023-06-10T05:31:24;11.27;;;10.23;;
12846;SDS011;6492;48.128;8.320;2023-06-10T05:35:26;11.20;;;10.10;;
12846;SDS011;6492;48.128;8.320;2023-06-10T05:39:28;11.13;;;10.13;;
12846;SDS011;6492;48.128;8.320;2023-06-10T05:43:31;10.57;;;9.60;;
12846;SDS011;6492;48.128;8.320;2023-06-10T05:47:33;10.67;;;9.67;;
12846;SDS011;6492;48.128;8.320;2023-06-10T05:51:35;10.73;;;9.37;;
12846;SDS011;6492;48.128;8.320;2023-06-10T05:55:37;11.43;;;10.23;;
12846;SDS011;6492;48.128;8.320;2023-06-10T05:59:40;10.60;;;9.63;;
12846;SDS011;6492;48.128;8.320;2023-06-10T06:03:54;10.20;;;9.20;;
12846;SDS011;6492;48.128;8.320;2023-06-10T06:07:56;10.33;;;9.03;;
12846;SDS011;6492;48.128;8.320;2023-06-10T06:11:58;10.57;;;8.80;;
12846;SDS011;6492;48.128;8.320;2023-06-10T06:16:01;9.77;;;8.85;;
12846;SDS011;6492;48.128;8.320;2023-06-10T06:20:03;7.40;;;6.70;;
12846;SDS011;6492;48.128;8.320;2023-06-10T06:24:06;7.32;;;6.63;;
12846;SDS011;6492;48.128;8.320;2023-06-10T06:28:09;6.63;;;6.13;;
12846;SDS011;6492;48.128;8.320;2023-06-10T06:32:13;6.88;;;6.28;;
12846;SDS011;6492;48.128;8.320;2023-06-10T06:36:14;7.07;;;6.47;;
12846;SDS011;6492;48.128;8.320;2023-06-10T06:40:16;7.20;;;6.70;;
12846;SDS011;6492;48.128;8.320;2023-06-10T06:44:18;6.97;;;6.47;;
12846;SDS011;6492;48.128;8.320;2023-06-10T06:48:21;7.50;;;6.90;;
12846;SDS011;6492;48.128;8.320;2023-06-10T06:52:23;7.20;;;6.70;;
12846;SDS011;6492;48.128;8.320;2023-06-10T06:56:25;7.63;;;7.05;;
12846;SDS011;6492;48.128;8.320;2023-06-10T07:00:28;7.20;;;6.60;;
12846;SDS011;6492;48.128;8.320;2023-06-10T07:04:31;6.95;;;6.45;;
12846;SDS011;6492;48.128;8.320;2023-06-10T07:08:33;7.05;;;6.55;;
12846;SDS011;6492;48.128;8.320;2023-06-10T07:12:34;7.57;;;6.97;;
12846;SDS011;6492;48.128;8.320;2023-06-10T07:16:36;12.52;;;11.52;;
12846;SDS011;6492;48.128;8.320;2023-06-10T07:20:39;7.53;;;6.93;;
12846;SDS011;6492;48.128;8.320;2023-06-10T07:24:41;7.38;;;6.88;;
12846;SDS011;6492;48.128;8.320;2023-06-10T07:28:43;8.40;;;7.60;;
12846;SDS011;6492;48.128;8.320;2023-06-10T07:32:45;7.00;;;6.40;;
12846;SDS011;6492;48.128;8.320;2023-06-10T07:36:48;7.00;;;6.50;;
12846;SDS011;6492;48.128;8.320;2023-06-10T07:40:50;7.53;;;6.93;;
12846;SDS011;6492;48.128;8.320;2023-06-10T07:44:52;7.63;;;6.85;;
12846;SDS011;6492;48.128;8.320;2023-06-10T07:48:54;6.70;;;6.10;;
12846;SDS011;6492;48.128;8.320;2023-06-10T07:52:57;6.70;;;6.20;;
12846;SDS011;6492;48.128;8.320;2023-06-10T07:56:59;7.70;;;7.10;;
12846;SDS011;6492;48.128;8.320;2023-06-10T08:01:01;7.00;;;6.40;;
12846;SDS011;6492;48.128;8.320;2023-06-10T08:05:03;7.38;;;6.78;;
12846;SDS011;6492;48.128;8.320;2023-06-10T08:09:07;7.47;;;6.18;;
12846;SDS011;6492;48.128;8.320;2023-06-10T08:13:08;7.03;;;6.43;;
12846;SDS011;6492;48.128;8.320;2023-06-10T08:17:10;7.30;;;6.60;;
12846;SDS011;6492;48.128;8.320;2023-06-10T08:21:12;7.75;;;7.15;;
12846;SDS011;6492;48.128;8.320;2023-06-10T08:25:15;7.82;;;7.13;;
12846;SDS011;6492;48.128;8.320;2023-06-10T08:29:17;7.85;;;7.25;;
12846;SDS011;6492;48.128;8.320;2023-06-10T08:33:19;7.82;;;7.18;;
12846;SDS011;6492;48.128;8.320;2023-06-10T08:37:20;7.22;;;6.63;;
12846;SDS011;6492;48.128;8.320;2023-06-10T08:41:24;7.82;;;7.13;;
12846;SDS011;6492;48.128;8.320;2023-06-10T08:45:29;7.65;;;6.97;;
12846;SDS011;6492;48.128;8.320;2023-06-10T08:49:32;8.45;;;7.75;;
12846;SDS011;6492;48.128;8.320;2023-06-10T08:53:36;7.95;;;7.13;;
12846;SDS011;6492;48.128;8.320;2023-06-10T08:57:41;7.28;;;6.78;;
12846;SDS011;6492;48.128;8.320;2023-06-10T09:01:44;7.72;;;7.13;;
12846;SDS011;6492;48.128;8.320;2023-06-10T09:05:48;7.53;;;6.93;;
12846;SDS011;6492;48.128;8.320;2023-06-10T09:09:51;7.95;;;7.35;;
12846;SDS011;6492;48.128;8.320;2023-06-10T09:13:57;7.68;;;7.07;;
12846;SDS011;6492;48.128;8.320;2023-06-10T09:17:59;7.90;;;7.28;;
12846;SDS011;6492;48.128;8.320;2023-06-10T09:22:02;7.78;;;7.07;;
12846;SDS011;6492;48.128;8.320;2023-06-10T09:26:07;7.90;;;7.22;;
12846;SDS011;6492;48.128;8.320;2023-06-10T09:30:12;8.02;;;7.22;;
12846;SDS011;6492;48.128;8.320;2023-06-10T09:34:26;7.22;;;6.57;;
12846;SDS011;6492;48.128;8.320;2023-06-10T09:38:29;7.55;;;7.05;;
12846;SDS011;6492;48.128;8.320;2023-06-10T09:42:32;8.35;;;7.65;;
12846;SDS011;6492;48.128;8.320;2023-06-10T09:46:36;7.32;;;6.72;;
12846;SDS011;6492;48.128;8.320;2023-06-10T09:50:41;7.28;;;6.68;;
12846;SDS011;6492;48.128;8.320;2023-06-10T09:54:44;7.93;;;7.32;;
12846;SDS011;6492;48.128;8.320;2023-06-10T09:58:45;8.38;;;7.57;;
12846;SDS011;6492;48.128;8.320;2023-06-10T10:02:49;8.02;;;7.22;;
12846;SDS011;6492;48.128;8.320;2023-06-10T10:06:52;7.28;;;6.63;;
12846;SDS011;6492;48.128;8.320;2023-06-10T10:10:55;7.05;;;6.55;;
12846;SDS011;6492;48.128;8.320;2023-06-10T10:14:58;7.00;;;6.50;;
12846;SDS011;6492;48.128;8.320;2023-06-10T10:19:04;7.32;;;6.82;;
12846;SDS011;6492;48.128;8.320;2023-06-10T10:23:11;7.45;;;6.75;;
12846;SDS011;6492;48.128;8.320;2023-06-10T10:27:20;7.25;;;6.68;;
12846;SDS011;6492;48.128;8.320;2023-06-10T10:31:27;7.47;;;6.90;;
12846;SDS011;6492;48.128;8.320;2023-06-10T10:35:35;7.85;;;7.15;;
12846;SDS011;6492;48.128;8.320;2023-06-10T10:39:39;7.30;;;6.70;;
12846;SDS011;6492;48.128;8.320;2023-06-10T10:43:41;7.38;;;6.80;;
12846;SDS011;6492;48.128;8.320;2023-06-10T10:47:45;7.25;;;6.65;;
12846;SDS011;6492;48.128;8.320;2023-06-10T10:51:58;7.68;;;7.18;;
12846;SDS011;6492;48.128;8.320;2023-06-10T10:56:04;7.15;;;6.60;;
12846;SDS011;6492;48.128;8.320;2023-06-10T11:00:24;7.70;;;7.00;;
12846;SDS011;6492;48.128;8.320;2023-06-10T11:04:28;7.40;;;6.80;;
12846;SDS011;6492;48.128;8.320;2023-06-10T11:08:47;7.50;;;6.80;;
12846;SDS011;6492;48.128;8.320;2023-06-10T11:12:50;6.95;;;6.45;;
12846;SDS011;6492;48.128;8.320;2023-06-10T11:16:56;8.90;;;7.07;;
12846;SDS011;6492;48.128;8.320;2023-06-10T11:20:59;8.40;;;7.70;;
12846;SDS011;6492;48.128;8.320;2023-06-10T11:25:04;7.55;;;7.05;;
12846;SDS011;6492;48.128;8.320;2023-06-10T11:29:15;7.50;;;6.97;;
12846;SDS011;6492;48.128;8.320;2023-06-10T11:33:17;7.68;;;7.13;;
12846;SDS011;6492;48.128;8.320;2023-06-10T11:37:18;7.68;;;6.97;;
12846;SDS011;6492;48.128;8.320;2023-06-10T11:41:23;6.82;;;6.32;;
12846;SDS011;6492;48.128;8.320;2023-06-10T11:45:25;7.63;;;7.03;;
12846;SDS011;6492;48.128;8.320;2023-06-10T11:49:27;7.45;;;6.85;;
12846;SDS011;6492;48.128;8.320;2023-06-10T11:53:30;7.70;;;7.10;;
12846;SDS011;6492;48.128;8.320;2023-06-10T11:57:35;7.70;;;7.18;;
12846;SDS011;6492;48.128;8.320;2023-06-10T12:01:37;7.95;;;7.35;;
12846;SDS011;6492;48.128;8.320;2023-06-10T12:05:54;7.10;;;6.50;;
12846;SDS011;6492;48.128;8.320;2023-06-10T12:10:00;7.20;;;6.68;;
12846;SDS011;6492;48.128;8.320;2023-06-10T12:14:03;7.45;;;6.90;;
12846;SDS011;6492;48.128;8.320;2023-06-10T12:18:06;6.43;;;5.93;;
12846;SDS011;6492;48.128;8.320;2023-06-10T12:22:08;7.00;;;6.50;;
12846;SDS011;6492;48.128;8.320;2023-06-10T12:26:10;6.60;;;6.10;;
12846;SDS011;6492;48.128;8.320;2023-06-10T12:30:18;6.72;;;6.13;;
12846;SDS011;6492;48.128;8.320;2023-06-10T12:34:27;6.50;;;6.00;;
12846;SDS011;6492;48.128;8.320;2023-06-10T12:38:32;6.22;;;5.75;;
12846;SDS011;6492;48.128;8.320;2023-06-10T12:42:35;6.25;;;5.75;;
12846;SDS011;6492;48.128;8.320;2023-06-10T12:46:40;5.32;;;4.72;;
12846;SDS011;6492;48.128;8.320;2023-06-10T12:50:42;5.20;;;4.80;;
12846;SDS011;6492;48.128;8.320;2023-06-10T12:54:45;4.50;;;4.20;;
12846;SDS011;6492;48.128;8.320;2023-06-10T12:58:46;5.15;;;4.75;;
12846;SDS011;6492;48.128;8.320;2023-06-10T13:02:50;4.93;;;4.53;;
12846;SDS011;6492;48.128;8.320;2023-06-10T13:06:52;5.30;;;4.90;;
12846;SDS011;6492;48.128;8.320;2023-06-10T13:10:58;4.72;;;4.43;;
12846;SDS011;6492;48.128;8.320;2023-06-10T13:15:00;4.70;;;4.30;;
12846;SDS011;6492;48.128;8.320;2023-06-10T13:19:16;4.85;;;4.30;;
12846;SDS011;6492;48.128;8.320;2023-06-10T13:27:48;5.38;;;4.88;;
12846;SDS011;6492;48.128;8.320;2023-06-10T13:32:01;5.40;;;4.90;;
12846;SDS011;6492;48.128;8.320;2023-06-10T13:40:40;4.53;;;4.22;;
12846;SDS011;6492;48.128;8.320;2023-06-10T13:44:42;4.43;;;4.13;;
12846;SDS011;6492;48.128;8.320;2023-06-10T13:48:44;4.32;;;3.92;;
12846;SDS011;6492;48.128;8.320;2023-06-10T13:52:49;4.25;;;3.85;;
12846;SDS011;6492;48.128;8.320;2023-06-10T13:56:51;4.20;;;3.90;;
12846;SDS011;6492;48.128;8.320;2023-06-10T14:00:53;4.40;;;4.10;;
12846;SDS011;6492;48.128;8.320;2023-06-10T14:05:02;4.10;;;3.80;;
12846;SDS011;6492;48.128;8.320;2023-06-10T14:09:06;4.00;;;3.70;;
12846;SDS011;6492;48.128;8.320;2023-06-10T14:13:08;3.85;;;3.53;;
12846;SDS011;6492;48.128;8.320;2023-06-10T14:17:11;4.13;;;3.83;;
12846;SDS011;6492;48.128;8.320;2023-06-10T14:21:13;4.05;;;3.75;;
12846;SDS011;6492;48.128;8.320;2023-06-10T14:25:18;4.43;;;4.03;;
12846;SDS011;6492;48.128;8.320;2023-06-10T14:29:20;4.28;;;3.88;;
12846;SDS011;6492;48.128;8.320;2023-06-10T14:33:22;4.07;;;3.78;;
12846;SDS011;6492;48.128;8.320;2023-06-10T14:37:24;4.10;;;3.80;;
12846;SDS011;6492;48.128;8.320;2023-06-10T14:41:41;4.22;;;3.85;;
12846;SDS011;6492;48.128;8.320;2023-06-10T14:45:43;4.20;;;3.92;;
12846;SDS011;6492;48.128;8.320;2023-06-10T14:49:52;4.35;;;4.05;;
12846;SDS011;6492;48.128;8.320;2023-06-10T14:53:54;4.28;;;3.92;;
12846;SDS011;6492;48.128;8.320;2023-06-10T14:57:57;4.40;;;4.00;;
12846;SDS011;6492;48.128;8.320;2023-06-10T15:01:59;4.20;;;3.90;;
12846;SDS011;6492;48.128;8.320;2023-06-10T15:06:01;7.22;;;6.63;;
12846;SDS011;6492;48.128;8.320;2023-06-10T15:10:06;4.90;;;4.50;;
12846;SDS011;6492;48.128;8.320;2023-06-10T15:14:09;4.85;;;4.30;;
12846;SDS011;6492;48.128;8.320;2023-06-10T15:18:11;4.93;;;4.43;;
12846;SDS011;6492;48.128;8.320;2023-06-10T15:22:14;4.82;;;4.50;;
12846;SDS011;6492;48.128;8.320;2023-06-10T15:26:16;5.05;;;4.65;;
12846;SDS011;6492;48.128;8.320;2023-06-10T15:30:19;4.97;;;4.53;;
12846;SDS011;6492;48.128;8.320;2023-06-10T15:34:21;5.38;;;4.93;;
12846;SDS011;6492;48.128;8.320;2023-06-10T15:38:22;5.25;;;4.88;;
12846;SDS011;6492;48.128;8.320;2023-06-10T15:42:24;5.15;;;4.55;;
12846;SDS011;6492;48.128;8.320;2023-06-10T15:46:28;4.95;;;4.55;;
12846;SDS011;6492;48.128;8.320;2023-06-10T15:50:30;5.15;;;4.72;;
12846;SDS011;6492;48.128;8.320;2023-06-10T15:54:32;4.78;;;4.38;;
12846;SDS011;6492;48.128;8.320;2023-06-10T15:58:34;5.30;;;4.80;;
12846;SDS011;6492;48.128;8.320;2023-06-10T16:02:37;5.38;;;4.30;;
12846;SDS011;6492;48.128;8.320;2023-06-10T16:06:38;4.45;;;4.13;;
12846;SDS011;6492;48.128;8.320;2023-06-10T16:10:46;4.93;;;4.53;;
12846;SDS011;6492;48.128;8.320;2023-06-10T16:14:52;5.20;;;4.80;;
12846;SDS011;6492;48.128;8.320;2023-06-10T16:18:56;5.93;;;5.53;;
12846;SDS011;6492;48.128;8.320;2023-06-10T16:22:58;4.70;;;4.40;;
12846;SDS011;6492;48.128;8.320;2023-06-10T16:27:00;4.93;;;4.40;;
12846;SDS011;6492;48.128;8.320;2023-06-10T16:35:08;5.25;;;4.85;;
12846;SDS011;6492;48.128;8.320;2023-06-10T16:39:10;4.97;;;4.22;;
12846;SDS011;6492;48.128;8.320;2023-06-10T16:43:23;4.22;;;3.85;;
12846;SDS011;6492;48.128;8.320;2023-06-10T16:47:26;4.53;;;4.22;;
12846;SDS011;6492;48.128;8.320;2023-06-10T16:51:29;4.25;;;3.95;;
12846;SDS011;6492;48.128;8.320;2023-06-10T16:55:31;4.30;;;4.00;;
12846;SDS011;6492;48.128;8.320;2023-06-10T16:59:41;4.47;;;4.03;;
12846;SDS011;6492;48.128;8.320;2023-06-10T17:03:43;5.50;;;5.10;;
12846;SDS011;6492;48.128;8.320;2023-06-10T17:07:52;4.90;;;4.50;;
12846;SDS011;6492;48.128;8.320;2023-06-10T17:11:54;4.57;;;4.20;;
12846;SDS011;6492;48.128;8.320;2023-06-10T17:15:56;4.90;;;4.50;;
12846;SDS011;6492;48.128;8.320;2023-06-10T17:19:58;4.85;;;4.40;;
12846;SDS011;6492;48.128;8.320;2023-06-10T17:24:07;5.03;;;4.57;;
12846;SDS011;6492;48.128;8.320;2023-06-10T17:28:09;5.00;;;4.50;;
12846;SDS011;6492;48.128;8.320;2023-06-10T17:32:10;5.00;;;4.60;;
12846;SDS011;6492;48.128;8.320;2023-06-10T17:36:27;4.95;;;4.50;;
12846;SDS011;6492;48.128;8.320;2023-06-10T17:40:30;5.88;;;5.43;;
12846;SDS011;6492;48.128;8.320;2023-06-10T17:44:32;4.90;;;4.60;;
12846;SDS011;6492;48.128;8.320;2023-06-10T17:48:34;5.47;;;5.07;;
12846;SDS011;6492;48.128;8.320;2023-06-10T17:52:39;4.30;;;4.00;;
12846;SDS011;6492;48.128;8.320;2023-06-10T17:56:44;4.93;;;4.53;;
12846;SDS011;6492;48.128;8.320;2023-06-10T18:00:46;4.90;;;4.50;;
12846;SDS011;6492;48.128;8.320;2023-06-10T18:04:56;5.20;;;4.70;;
12846;SDS011;6492;48.128;8.320;2023-06-10T18:13:39;5.07;;;4.68;;
12846;SDS011;6492;48.128;8.320;2023-06-10T18:17:41;5.55;;;5.05;;
12846;SDS011;6492;48.128;8.320;2023-06-10T18:21:43;4.95;;;4.50;;
12846;SDS011;6492;48.128;8.320;2023-06-10T18:25:45;5.30;;;4.90;;
12846;SDS011;6492;48.128;8.320;2023-06-10T18:29:48;4.97;;;4.57;;
12846;SDS011;6492;48.128;8.320;2023-06-10T18:33:53;5.38;;;4.97;;
12846;SDS011;6492;48.128;8.320;2023-06-10T18:37:54;5.63;;;5.20;;
12846;SDS011;6492;48.128;8.320;2023-06-10T18:41:56;5.47;;;5.07;;
12846;SDS011;6492;48.128;8.320;2023-06-10T18:46:03;5.10;;;4.78;;
12846;SDS011;6492;48.128;8.320;2023-06-10T18:50:05;5.60;;;5.20;;
12846;SDS011;6492;48.128;8.320;2023-06-10T18:54:07;5.18;;;4.78;;
12846;SDS011;6492;48.128;8.320;2023-06-10T18:58:09;5.10;;;4.70;;
12846;SDS011;6492;48.128;8.320;2023-06-10T19:02:14;5.70;;;5.07;;
12846;SDS011;6492;48.128;8.320;2023-06-10T19:06:16;5.88;;;5.38;;
12846;SDS011;6492;48.128;8.320;2023-06-10T19:10:18;6.22;;;5.57;;
12846;SDS011;6492;48.128;8.320;2023-06-10T19:14:20;5.43;;;4.95;;
12846;SDS011;6492;48.128;8.320;2023-06-10T19:18:25;6.30;;;5.80;;
12846;SDS011;6492;48.128;8.320;2023-06-10T19:22:29;6.50;;;5.90;;
12846;SDS011;6492;48.128;8.320;2023-06-10T19:26:31;5.88;;;5.43;;
12846;SDS011;6492;48.128;8.320;2023-06-10T19:30:32;5.68;;;5.20;;
12846;SDS011;6492;48.128;8.320;2023-06-10T19:34:36;5.22;;;4.80;;
12846;SDS011;6492;48.128;8.320;2023-06-10T19:42:50;5.85;;;5.35;;
12846;SDS011;6492;48.128;8.320;2023-06-10T19:46:53;5.53;;;5.03;;
12846;SDS011;6492;48.128;8.320;2023-06-10T19:51:01;5.80;;;5.30;;
12846;SDS011;6492;48.128;8.320;2023-06-10T19:55:03;6.20;;;5.70;;
12846;SDS011;6492;48.128;8.320;2023-06-10T19:59:07;6.07;;;5.57;;
12846;SDS011;6492;48.128;8.320;2023-06-10T20:03:09;6.80;;;6.20;;
12846;SDS011;6492;48.128;8.320;2023-06-10T20:12:09;5.78;;;5.30;;
12846;SDS011;6492;48.128;8.320;2023-06-10T20:16:11;6.07;;;5.57;;
12846;SDS011;6492;48.128;8.320;2023-06-10T20:20:13;5.80;;;5.30;;
12846;SDS011;6492;48.128;8.320;2023-06-10T20:24:15;5.53;;;5.03;;
12846;SDS011;6492;48.128;8.320;2023-06-10T20:28:18;6.38;;;5.88;;
12846;SDS011;6492;48.128;8.320;2023-06-10T20:32:20;6.20;;;5.70;;
12846;SDS011;6492;48.128;8.320;2023-06-10T20:36:22;7.05;;;6.00;;
12846;SDS011;6492;48.128;8.320;2023-06-10T20:40:40;6.45;;;5.85;;
12846;SDS011;6492;48.128;8.320;2023-06-10T20:44:43;6.63;;;6.13;;
12846;SDS011;6492;48.128;8.320;2023-06-10T20:48:45;6.70;;;6.13;;
12846;SDS011;6492;48.128;8.320;2023-06-10T20:52:52;6.65;;;6.15;;
12846;SDS011;6492;48.128;8.320;2023-06-10T20:56:54;6.65;;;6.05;;
12846;SDS011;6492;48.128;8.320;2023-06-10T21:05:09;6.75;;;6.15;;
12846;SDS011;6492;48.128;8.320;2023-06-10T21:09:14;7.38;;;6.78;;
12846;SDS011;6492;48.128;8.320;2023-06-10T21:13:16;6.72;;;6.18;;
12846;SDS011;6492;48.128;8.320;2023-06-10T21:21:33;6.88;;;6.28;;
12846;SDS011;6492;48.128;8.320;2023-06-10T21:25:36;7.03;;;6.32;;
12846;SDS011;6492;48.128;8.320;2023-06-10T21:29:38;7.32;;;6.55;;
12846;SDS011;6492;48.128;8.320;2023-06-10T21:33:46;6.93;;;6.32;;
12846;SDS011;6492;48.128;8.320;2023-06-10T21:37:48;6.55;;;5.95;;
12846;SDS011;6492;48.128;8.320;2023-06-10T21:41:50;6.83;;;6.23;;
12846;SDS011;6492;48.128;8.320;2023-06-10T21:45:52;6.75;;;6.15;;
12846;SDS011;6492;48.128;8.320;2023-06-10T21:49:56;6.93;;;6.22;;
12846;SDS011;6492;48.128;8.320;2023-06-10T21:53:58;6.30;;;5.70;;
12846;SDS011;6492;48.128;8.320;2023-06-10T21:58:00;6.68;;;6.07;;
12846;SDS011;6492;48.128;8.320;2023-06-10T22:02:02;6.28;;;5.78;;
12846;SDS011;6492;48.128;8.320;2023-06-10T22:06:05;6.10;;;5.57;;
12846;SDS011;6492;48.128;8.320;2023-06-10T22:10:07;6.78;;;6.00;;
12846;SDS011;6492;48.128;8.320;2023-06-10T22:14:09;7.03;;;6.18;;
12846;SDS011;6492;48.128;8.320;2023-06-10T22:22:30;6.77;;;6.17;;
12846;SDS011;6492;48.128;8.320;2023-06-10T22:26:32;6.97;;;6.38;;
12846;SDS011;6492;48.128;8.320;2023-06-10T22:30:33;7.17;;;6.57;;
12846;SDS011;6492;48.128;8.320;2023-06-10T22:34:35;6.57;;;5.97;;
12846;SDS011;6492;48.128;8.320;2023-06-10T22:38:38;6.40;;;5.85;;
12846;SDS011;6492;48.128;8.320;2023-06-10T22:42:40;7.10;;;6.40;;
12846;SDS011;6492;48.128;8.320;2023-06-10T22:46:42;7.17;;;6.47;;
12846;SDS011;6492;48.128;8.320;2023-06-10T22:50:56;7.10;;;6.40;;
12846;SDS011;6492;48.128;8.320;2023-06-10T22:54:59;6.73;;;6.03;;
12846;SDS011;6492;48.128;8.320;2023-06-10T22:59:01;6.70;;;6.10;;
12846;SDS011;6492;48.128;8.320;2023-06-10T23:03:03;6.43;;;5.47;;
12846;SDS011;6492;48.128;8.320;2023-06-10T23:07:05;6.93;;;6.33;;
12846;SDS011;6492;48.128;8.320;2023-06-10T23:11:10;7.50;;;6.77;;
12846;SDS011;6492;48.128;8.320;2023-06-10T23:15:12;8.03;;;7.23;;
12846;SDS011;6492;48.128;8.320;2023-06-10T23:19:14;6.93;;;6.33;;
12846;SDS011;6492;48.128;8.320;2023-06-10T23:23:19;6.90;;;6.30;;
12846;SDS011;6492;48.128;8.320;2023-06-10T23:27:22;7.27;;;6.20;;
12846;SDS011;6492;48.128;8.320;2023-06-10T23:31:24;7.33;;;6.63;;
12846;SDS011;6492;48.128;8.320;2023-06-10T23:35:26;6.57;;;5.97;;
12846;SDS011;6492;48.128;8.320;2023-06-10T23:39:28;6.13;;;5.63;;
12846;SDS011;6492;48.128;8.320;2023-06-10T23:43:31;6.37;;;5.80;;
12846;SDS011;6492;48.128;8.320;2023-06-10T23:47:33;6.80;;;6.13;;
12846;SDS011;6492;48.128;8.320;2023-06-10T23:51:36;7.43;;;6.63;;
12846;SDS011;6492;48.128;8.320;2023-06-10T23:55:38;7.70;;;6.90;;
12846;SDS011;6492;48.128;8.320;2023-06-10T23:59:41;7.60;;;6.80;;
